Time;durP1;ratioP1;P1;durP2;ratioP2;P2;SDS_P1;SDS_P2;PMS_P1;PMS_P2;Temp;Humidity;BMP_temperature;BMP_pressure;BME280_temperature;BME280_humidity;BME280_pressure;Samples;Min_cycle;Max_cycle;Signal;HPM_P1;HPM_P2
2022/05/09 00:02:14;;;;;;;11.47;5.90;;;12.00;99.90;;;;;;5051006;28;20922;-84
2022/05/09 00:04:40;;;;;;;6.57;5.97;;;12.00;99.90;;;;;;5050601;28;20478;-84
2022/05/09 00:07:06;;;;;;;7.00;6.23;;;11.90;99.90;;;;;;5069122;28;20468;-83
2022/05/09 00:09:32;;;;;;;6.20;5.60;;;11.80;99.90;;;;;;5069041;28;20259;-84
2022/05/09 00:11:58;;;;;;;6.83;6.13;;;11.60;99.90;;;;;;5033959;28;20943;-83
2022/05/09 00:14:24;;;;;;;8.83;5.70;;;11.60;99.90;;;;;;5068624;28;20420;-84
2022/05/09 00:16:51;;;;;;;7.47;6.07;;;11.50;99.90;;;;;;5034374;28;20440;-83
2022/05/09 00:19:20;;;;;;;12.70;6.13;;;11.50;99.90;;;;;;5051396;28;20425;-83
2022/05/09 00:21:47;;;;;;;12.23;11.03;;;11.60;99.90;;;;;;5034968;28;20467;-83
2022/05/09 00:24:15;;;;;;;7.67;6.87;;;11.50;99.90;;;;;;5068959;28;20428;-83
2022/05/09 00:26:48;;;;;;;8.00;7.20;;;11.60;99.90;;;;;;5050627;28;20466;-82
2022/05/09 00:29:16;;;;;;;8.30;6.50;;;11.50;99.90;;;;;;5017431;28;21015;-83
2022/05/09 00:31:43;;;;;;;9.63;6.60;;;11.40;99.90;;;;;;5050045;28;20432;-83
2022/05/09 00:34:17;;;;;;;7.37;6.70;;;11.30;99.90;;;;;;5068501;28;20442;-83
2022/05/09 00:36:44;;;;;;;10.70;8.07;;;11.20;99.90;;;;;;5050051;28;20449;-83
2022/05/09 00:39:10;;;;;;;7.57;6.80;;;11.20;99.90;;;;;;5050209;28;20423;-83
2022/05/09 00:41:40;;;;;;;7.10;6.40;;;11.20;99.90;;;;;;5050039;28;20416;-83
2022/05/09 00:44:15;;;;;;;7.93;7.13;;;11.20;99.90;;;;;;5035231;28;20419;-83
2022/05/09 00:46:44;;;;;;;11.43;7.10;;;11.30;99.90;;;;;;5072517;28;20759;-82
2022/05/09 00:49:23;;;;;;;7.43;6.73;;;11.20;99.90;;;;;;5072521;28;20422;-83
2022/05/09 00:52:18;;;;;;;9.50;7.20;;;11.30;99.90;;;;;;5054326;28;20495;-82
2022/05/09 00:54:48;;;;;;;10.87;8.40;;;11.10;99.90;;;;;;5072305;28;20454;-83
2022/05/09 00:57:32;;;;;;;12.00;7.90;;;11.10;99.90;;;;;;5037801;28;20905;-82
2022/05/09 01:00:07;;;;;;;8.57;7.67;;;11.10;99.90;;;;;;5037661;28;20896;-83
2022/05/09 01:02:34;;;;;;;7.73;6.93;;;11.00;99.90;;;;;;5072309;28;20954;-82
2022/05/09 01:05:01;;;;;;;7.77;6.97;;;11.00;99.90;;;;;;5054466;28;20580;-83
2022/05/09 01:07:28;;;;;;;9.80;7.33;;;11.00;99.90;;;;;;5072159;28;20468;-83
2022/05/09 01:09:53;;;;;;;8.70;7.80;;;11.00;99.90;;;;;;5053871;28;20418;-82
2022/05/09 01:12:32;;;;;;;10.50;8.07;;;11.00;99.90;;;;;;5053855;28;20980;-83
2022/05/09 01:15:05;;;;;;;7.40;6.10;;;11.00;99.90;;;;;;5071925;28;20208;-83
2022/05/09 01:17:31;;;;;;;8.17;7.20;;;10.90;99.90;;;;;;5071628;28;20451;-83
2022/05/09 01:20:00;;;;;;;19.10;14.00;;;10.90;99.90;;;;;;5053885;28;20425;-83
2022/05/09 01:22:34;;;;;;;7.77;6.80;;;10.70;99.90;;;;;;5020804;28;20519;-83
2022/05/09 01:25:03;;;;;;;8.23;7.43;;;10.70;99.90;;;;;;5053453;28;20480;-82
2022/05/09 01:27:34;;;;;;;7.67;6.97;;;10.70;99.90;;;;;;5053431;28;20509;-82
2022/05/09 01:30:30;;;;;;;7.70;6.90;;;10.70;99.90;;;;;;5053626;28;20534;-83
2022/05/09 01:33:14;;;;;;;7.70;6.77;;;10.70;99.90;;;;;;5017409;28;20426;-83
2022/05/09 01:36:15;;;;;;;9.23;7.43;;;10.60;99.90;;;;;;5071614;28;20438;-83
2022/05/09 01:38:46;;;;;;;9.30;7.60;;;10.50;99.90;;;;;;5071788;28;20416;-83
2022/05/09 01:41:13;;;;;;;7.90;7.10;;;10.60;99.90;;;;;;5071648;28;20435;-83
2022/05/09 01:43:44;;;;;;;8.53;7.63;;;10.60;99.90;;;;;;5053593;28;20807;-83
2022/05/09 01:46:15;;;;;;;8.30;7.13;;;10.50;99.90;;;;;;5071726;28;20997;-83
2022/05/09 01:51:26;;;;;;;9.13;7.47;;;10.40;99.90;;;;;;5071632;28;20498;-83
2022/05/09 01:53:52;;;;;;;10.27;7.13;;;10.30;99.90;;;;;;5072101;28;20813;-83
2022/05/09 01:56:38;;;;;;;10.60;8.13;;;10.30;99.90;;;;;;5053020;28;20752;-82
2022/05/09 01:59:06;;;;;;;9.67;8.07;;;10.30;99.90;;;;;;5053294;28;20432;-83
2022/05/09 02:01:45;;;;;;;10.17;8.33;;;10.10;99.90;;;;;;5036703;28;20433;-83
2022/05/09 02:04:11;;;;;;;10.70;8.23;;;10.10;99.90;;;;;;5036449;28;20523;-84
2022/05/09 02:06:39;;;;;;;8.90;7.90;;;10.10;99.90;;;;;;5052827;28;20445;-82
2022/05/09 02:09:05;;;;;;;8.70;7.80;;;10.10;99.90;;;;;;5052759;28;20445;-82
2022/05/09 02:11:31;;;;;;;7.90;7.07;;;10.20;99.90;;;;;;5020059;28;20924;-82
2022/05/09 02:13:57;;;;;;;8.37;7.30;;;10.20;99.90;;;;;;5071044;28;20417;-83
2022/05/09 02:16:23;;;;;;;10.03;7.93;;;10.20;99.90;;;;;;5019617;28;20829;-81
2022/05/09 02:18:49;;;;;;;13.20;8.27;;;10.10;99.90;;;;;;5036184;28;20222;-84
2022/05/09 02:21:15;;;;;;;9.37;8.37;;;10.10;99.90;;;;;;5052985;28;20418;-84
2022/05/09 02:23:41;;;;;;;8.03;7.23;;;10.00;99.90;;;;;;5036101;28;20430;-84
2022/05/09 02:26:07;;;;;;;8.80;7.90;;;10.00;99.90;;;;;;5052312;28;20221;-83
2022/05/09 02:28:32;;;;;;;10.03;7.77;;;10.00;99.90;;;;;;5019641;28;20432;-84
2022/05/09 02:30:58;;;;;;;8.40;7.50;;;10.00;99.90;;;;;;5019694;28;20577;-83
2022/05/09 02:33:24;;;;;;;9.63;8.50;;;10.00;99.90;;;;;;5052398;28;20526;-83
2022/05/09 02:35:50;;;;;;;9.93;8.47;;;10.00;99.90;;;;;;5052477;28;20495;-83
2022/05/09 02:38:17;;;;;;;8.70;7.90;;;10.00;99.90;;;;;;5052348;28;20179;-83
2022/05/09 02:40:42;;;;;;;8.63;7.83;;;10.00;99.90;;;;;;5053023;28;20422;-83
2022/05/09 02:43:08;;;;;;;9.23;8.33;;;10.00;99.90;;;;;;5071318;28;20840;-82
2022/05/09 02:45:34;;;;;;;10.30;8.30;;;10.00;99.90;;;;;;5070553;28;20220;-82
2022/05/09 02:48:00;;;;;;;9.87;8.87;;;10.00;99.90;;;;;;5052558;28;20418;-82
2022/05/09 02:50:27;;;;;;;10.73;8.73;;;10.00;99.90;;;;;;5035780;28;20490;-82
2022/05/09 02:52:54;;;;;;;9.40;8.40;;;10.00;99.90;;;;;;5070595;28;20409;-82
2022/05/09 02:55:20;;;;;;;11.33;8.87;;;9.90;99.90;;;;;;5035695;28;20438;-82
2022/05/09 02:57:47;;;;;;;10.70;8.40;;;9.80;99.90;;;;;;5052060;28;20449;-82
2022/05/09 03:00:19;;;;;;;12.63;8.60;;;9.80;99.90;;;;;;5051384;28;20966;-83
2022/05/09 03:04:38;;;;;;;9.07;8.17;;;9.80;99.90;;;;;;5047958;28;20495;-83
2022/05/09 03:05:32;;;;;;;9.17;8.10;;;9.70;99.90;;;;;;5054564;28;20490;-83
2022/05/09 03:07:57;;;;;;;9.63;8.50;;;9.70;99.90;;;;;;5051240;28;20482;-83
2022/05/09 03:10:24;;;;;;;9.60;8.60;;;9.80;99.90;;;;;;5051676;28;20426;-82
2022/05/09 03:12:50;;;;;;;11.80;8.27;;;9.80;99.90;;;;;;5069737;28;20557;-82
2022/05/09 03:15:17;;;;;;;10.83;9.00;;;9.80;99.90;;;;;;5051687;28;20454;-81
2022/05/09 03:17:42;;;;;;;11.00;8.67;;;9.80;99.90;;;;;;5070101;28;20421;-83
2022/05/09 03:20:09;;;;;;;9.17;8.10;;;9.60;99.90;;;;;;5035521;28;20472;-82
2022/05/09 03:22:35;;;;;;;9.97;8.90;;;9.60;99.90;;;;;;5052364;28;20230;-83
2022/05/09 03:25:01;;;;;;;15.93;9.00;;;9.50;99.90;;;;;;5052372;28;20793;-83
2022/05/09 03:27:27;;;;;;;13.07;10.33;;;9.50;99.90;;;;;;5051902;28;20182;-83
2022/05/09 03:29:52;;;;;;;10.60;9.50;;;9.50;99.90;;;;;;5051982;28;20417;-83
2022/05/09 03:32:18;;;;;;;11.13;9.47;;;9.60;99.90;;;;;;5052428;28;20417;-82
2022/05/09 03:34:46;;;;;;;9.67;7.70;;;9.50;99.90;;;;;;5052540;28;20587;-83
2022/05/09 03:37:12;;;;;;;9.33;8.33;;;9.40;99.90;;;;;;5035972;28;20183;-86
2022/05/09 03:39:38;;;;;;;9.63;8.43;;;9.40;99.90;;;;;;5035850;28;20457;-84
2022/05/09 03:42:04;;;;;;;11.80;9.50;;;9.50;99.90;;;;;;5035971;28;20450;-83
2022/05/09 03:44:30;;;;;;;15.57;10.60;;;9.40;99.90;;;;;;5052118;28;20238;-83
2022/05/09 03:46:55;;;;;;;11.10;9.83;;;9.50;99.90;;;;;;5051918;28;20898;-83
2022/05/09 03:49:21;;;;;;;12.30;10.57;;;9.40;99.90;;;;;;5051853;28;20175;-84
2022/05/09 03:51:46;;;;;;;12.27;9.93;;;9.30;99.90;;;;;;5051570;28;20694;-81
2022/05/09 03:54:12;;;;;;;14.17;9.70;;;9.40;99.90;;;;;;5051868;28;20187;-83
2022/05/09 03:56:38;;;;;;;12.20;10.77;;;9.60;99.90;;;;;;5035046;28;20245;-84
2022/05/09 03:59:04;;;;;;;18.53;11.47;;;9.70;99.90;;;;;;5052242;28;20263;-84
2022/05/09 04:01:29;;;;;;;13.60;10.77;;;9.70;99.90;;;;;;5052631;28;20208;-84
2022/05/09 04:03:55;;;;;;;15.07;11.40;;;9.60;99.90;;;;;;5070383;28;20589;-83
2022/05/09 04:06:22;;;;;;;13.67;10.10;;;9.50;99.90;;;;;;5020572;28;20215;-84
2022/05/09 04:08:48;;;;;;;12.87;9.90;;;9.50;99.90;;;;;;5054028;28;20186;-84
2022/05/09 04:11:13;;;;;;;11.90;10.70;;;9.50;99.90;;;;;;5021019;28;20427;-84
2022/05/09 04:13:39;;;;;;;12.90;10.37;;;9.50;99.90;;;;;;5053873;28;20190;-83
2022/05/09 04:18:52;;;;;;;14.10;10.10;;;9.50;99.90;;;;;;5055061;28;20535;-84
2022/05/09 04:21:17;;;;;;;14.03;10.13;;;9.50;99.90;;;;;;5052712;28;20486;-84
2022/05/09 04:23:45;;;;;;;12.27;10.37;;;9.50;99.90;;;;;;5052213;28;20516;-84
2022/05/09 04:26:12;;;;;;;12.30;11.00;;;9.60;99.90;;;;;;5035764;28;20214;-84
2022/05/09 04:28:38;;;;;;;12.90;10.50;;;9.70;99.90;;;;;;5051775;28;20509;-84
2022/05/09 04:31:05;;;;;;;12.30;10.10;;;9.70;99.90;;;;;;5018978;28;20516;-84
2022/05/09 04:33:30;;;;;;;13.77;10.60;;;9.80;99.90;;;;;;5019969;28;20431;-85
2022/05/09 04:35:58;;;;;;;11.30;10.03;;;9.80;99.90;;;;;;5050759;28;20447;-84
2022/05/09 04:38:24;;;;;;;17.17;13.63;;;9.90;99.90;;;;;;5033848;28;20197;-86
2022/05/09 04:40:52;;;;;;;16.27;12.60;;;9.80;99.90;;;;;;5033420;28;20460;-85
2022/05/09 04:43:23;;;;;;;16.00;12.20;;;9.70;99.90;;;;;;5033568;28;20497;-85
2022/05/09 04:45:50;;;;;;;12.90;11.30;;;9.80;99.90;;;;;;5049701;28;21027;-85
2022/05/09 04:48:17;;;;;;;11.37;10.17;;;9.90;99.90;;;;;;5068752;28;20409;-85
2022/05/09 04:50:43;;;;;;;13.60;11.70;;;9.90;99.90;;;;;;5068040;28;20483;-84
2022/05/09 04:53:10;;;;;;;11.50;10.03;;;9.90;99.90;;;;;;5049653;28;20891;-84
2022/05/09 04:55:36;;;;;;;11.97;9.83;;;10.00;99.90;;;;;;5067984;28;20959;-84
2022/05/09 04:58:03;;;;;;;15.47;10.70;;;10.10;99.90;;;;;;5032701;28;20478;-83
2022/05/09 05:00:29;;;;;;;11.40;10.10;;;10.30;99.90;;;;;;5067416;28;20770;-84
2022/05/09 05:02:56;;;;;;;12.23;10.63;;;10.20;99.90;;;;;;5032877;28;20437;-83
2022/05/09 05:05:24;;;;;;;11.50;10.20;;;10.40;99.90;;;;;;5067376;28;21157;-83
2022/05/09 05:07:50;;;;;;;19.10;11.87;;;10.30;99.90;;;;;;5049634;28;20432;-83
2022/05/09 05:10:17;;;;;;;15.23;11.00;;;10.50;99.90;;;;;;5068029;28;20501;-83
2022/05/09 05:12:43;;;;;;;16.67;12.87;;;10.70;99.90;;;;;;5033356;28;20453;-83
2022/05/09 05:15:09;;;;;;;15.00;13.33;;;10.80;99.90;;;;;;5049531;28;20489;-84
2022/05/09 05:17:36;;;;;;;16.70;13.20;;;11.00;99.90;;;;;;5049728;28;20426;-83
2022/05/09 05:20:04;;;;;;;17.70;13.37;;;11.10;99.90;;;;;;5067624;28;20453;-83
2022/05/09 05:22:34;;;;;;;21.20;13.33;;;11.20;99.90;;;;;;5017449;28;20944;-84
2022/05/09 05:25:00;;;;;;;19.80;13.43;;;11.30;99.90;;;;;;5049934;28;20470;-84
2022/05/09 05:27:25;;;;;;;16.20;14.50;;;11.50;99.90;;;;;;5050032;28;20784;-83
2022/05/09 05:29:55;;;;;;;15.57;12.67;;;11.70;99.90;;;;;;5050736;28;20188;-84
2022/05/09 05:32:23;;;;;;;23.40;13.23;;;11.80;99.90;;;;;;5054131;28;20215;-84
2022/05/09 05:34:51;;;;;;;15.97;12.97;;;12.00;99.90;;;;;;5071785;28;20445;-79
2022/05/09 05:37:17;;;;;;;14.87;12.03;;;12.10;99.90;;;;;;5054006;28;20418;-84
2022/05/09 05:39:44;;;;;;;15.30;11.93;;;12.20;99.90;;;;;;5053799;28;20550;-83
2022/05/09 05:42:11;;;;;;;14.37;12.87;;;12.30;99.90;;;;;;5053254;28;20430;-84
2022/05/09 05:44:37;;;;;;;17.23;13.07;;;12.40;99.90;;;;;;5053173;28;20489;-86
2022/05/09 05:47:08;;;;;;;13.87;11.93;;;12.50;99.90;;;;;;5052791;28;20425;-83
2022/05/09 05:49:35;;;;;;;13.57;12.23;;;12.60;99.90;;;;;;5070770;28;20400;-84
2022/05/09 05:52:03;;;;;;;14.57;12.03;;;12.70;99.90;;;;;;5052439;28;20426;-84
2022/05/09 05:54:35;;;;;;;14.83;11.17;;;12.90;99.90;;;;;;5052325;28;20862;-84
2022/05/09 05:57:02;;;;;;;14.87;12.30;;;13.00;99.90;;;;;;5053042;28;20482;-84
2022/05/09 05:59:28;;;;;;;14.40;11.90;;;13.10;99.90;;;;;;5052875;28;20453;-83
2022/05/09 06:01:54;;;;;;;17.43;12.57;;;13.30;99.90;;;;;;5036465;28;20428;-84
2022/05/09 06:04:21;;;;;;;14.73;11.70;;;13.40;99.90;;;;;;5053427;28;20490;-84
2022/05/09 06:06:47;;;;;;;13.20;10.70;;;13.50;99.90;;;;;;5036869;28;20445;-83
2022/05/09 06:09:13;;;;;;;12.37;11.07;;;13.80;99.90;;;;;;5053333;28;20419;-82
2022/05/09 06:11:40;;;;;;;21.23;15.67;;;14.10;99.90;;;;;;5053448;28;20466;-82
2022/05/09 06:14:07;;;;;;;16.67;13.33;;;14.20;99.90;;;;;;5071082;28;20418;-83
2022/05/09 06:16:34;;;;;;;20.10;14.93;;;14.40;99.90;;;;;;5052687;28;20441;-82
2022/05/09 06:19:00;;;;;;;18.43;13.57;;;14.60;99.90;;;;;;5053094;28;20471;-83
2022/05/09 06:21:27;;;;;;;15.90;13.10;;;14.70;99.90;;;;;;5036388;28;20433;-82
2022/05/09 06:23:53;;;;;;;15.40;10.87;;;14.80;99.90;;;;;;5052880;28;20183;-82
2022/05/09 06:26:21;;;;;;;13.53;11.60;;;14.80;99.90;;;;;;5051090;28;20469;-83
2022/05/09 06:28:47;;;;;;;12.90;11.00;;;14.90;99.90;;;;;;5051593;28;21313;-82
2022/05/09 06:31:12;;;;;;;12.23;9.90;;;15.00;99.90;;;;;;5035251;28;20468;-83
2022/05/09 06:33:38;;;;;;;12.37;10.40;;;15.00;99.90;;;;;;5034957;28;20866;-83
2022/05/09 06:36:05;;;;;;;12.47;11.17;;;15.20;99.90;;;;;;5034432;28;20260;-83
2022/05/09 06:38:33;;;;;;;11.67;10.37;;;15.30;99.90;;;;;;5034521;28;20191;-83
2022/05/09 06:41:01;;;;;;;15.73;10.60;;;15.40;99.90;;;;;;5034146;28;20520;-83
2022/05/09 06:43:28;;;;;;;11.63;10.43;;;15.60;99.90;;;;;;5050116;28;20935;-83
2022/05/09 06:45:53;;;;;;;11.93;10.00;;;15.80;99.90;;;;;;5034141;28;20480;-83
2022/05/09 06:48:20;;;;;;;10.57;9.40;;;15.90;99.90;;;;;;5050943;28;20928;-83
2022/05/09 06:50:45;;;;;;;11.00;8.47;;;15.90;99.90;;;;;;5050738;28;20234;-83
2022/05/09 06:53:12;;;;;;;10.80;9.10;;;16.00;99.90;;;;;;5034239;28;20882;-82
2022/05/09 06:55:38;;;;;;;11.87;9.97;;;16.10;99.90;;;;;;5050418;28;20208;-83
2022/05/09 06:58:09;;;;;;;10.30;9.00;;;16.20;99.90;;;;;;5050517;28;20490;-83
2022/05/09 07:00:35;;;;;;;10.83;9.03;;;16.30;99.90;;;;;;5033801;28;20430;-83
2022/05/09 07:03:01;;;;;;;10.53;9.10;;;16.40;99.90;;;;;;5068800;28;20437;-84
2022/05/09 07:05:27;;;;;;;11.60;10.23;;;16.50;99.90;;;;;;5050130;28;20807;-84
2022/05/09 07:07:53;;;;;;;10.53;9.27;;;16.40;99.90;;;;;;5068200;28;20262;-84
2022/05/09 07:10:20;;;;;;;10.60;9.30;;;16.40;99.90;;;;;;5050268;28;20505;-84
2022/05/09 07:12:51;;;;;;;13.27;9.90;;;16.60;99.90;;;;;;5050103;28;20423;-84
2022/05/09 07:15:22;;;;;;;9.90;9.00;;;16.60;99.90;;;;;;5033636;28;20458;-83
2022/05/09 07:17:51;;;;;;;11.50;9.40;;;16.70;99.90;;;;;;5017605;28;20427;-84
2022/05/09 07:20:20;;;;;;;10.80;9.70;;;16.70;99.90;;;;;;5050308;28;20429;-84
2022/05/09 07:22:47;;;;;;;12.23;10.20;;;16.70;99.90;;;;;;5067872;28;20415;-84
2022/05/09 07:25:15;;;;;;;9.83;8.73;;;16.70;99.90;;;;;;5033198;28;20481;-84
2022/05/09 07:27:42;;;;;;;10.40;9.30;;;16.80;99.90;;;;;;5049809;28;20421;-84
2022/05/09 07:30:13;;;;;;;10.53;9.43;;;16.80;99.90;;;;;;5067999;28;20407;-85
2022/05/09 07:32:40;;;;;;;10.97;8.77;;;16.90;99.90;;;;;;5068175;28;21348;-84
2022/05/09 07:35:08;;;;;;;10.37;8.60;;;16.90;99.90;;;;;;5033184;28;20513;-84
2022/05/09 07:37:34;;;;;;;11.90;9.20;;;17.00;99.90;;;;;;5033489;28;20436;-84
2022/05/09 07:40:00;;;;;;;10.23;9.13;;;17.20;99.90;;;;;;5049862;28;20501;-84
2022/05/09 07:42:26;;;;;;;10.30;9.17;;;17.30;99.90;;;;;;5050234;28;20554;-84
2022/05/09 07:44:55;;;;;;;10.63;7.93;;;17.30;99.90;;;;;;5033445;28;20220;-84
2022/05/09 07:47:21;;;;;;;10.33;9.20;;;17.30;99.90;;;;;;5033566;28;20422;-83
2022/05/09 07:49:47;;;;;;;10.10;8.87;;;17.50;99.90;;;;;;5032743;28;20481;-84
2022/05/09 07:52:13;;;;;;;10.23;9.13;;;17.50;99.90;;;;;;5049340;28;20433;-83
2022/05/09 07:54:39;;;;;;;10.43;8.70;;;17.60;99.90;;;;;;5032535;28;20188;-84
2022/05/09 07:57:05;;;;;;;9.67;8.67;;;17.70;99.90;;;;;;5049187;28;20189;-83
2022/05/09 07:59:31;;;;;;;9.83;8.60;;;17.90;99.90;;;;;;5049531;28;20461;-83
2022/05/09 08:01:56;;;;;;;11.97;8.43;;;18.00;99.90;;;;;;5032077;28;20773;-85
2022/05/09 08:04:23;;;;;;;9.90;9.03;;;17.90;99.90;;;;;;5016002;28;20194;-84
2022/05/09 08:06:49;;;;;;;11.50;9.03;;;17.70;99.90;;;;;;5049147;28;20205;-81
2022/05/09 08:09:15;;;;;;;11.57;8.80;;;17.70;99.90;;;;;;5049442;28;20928;-83
2022/05/09 08:11:41;;;;;;;9.83;8.93;;;17.80;99.90;;;;;;5067769;28;20522;-84
2022/05/09 08:14:08;;;;;;;11.87;9.30;;;17.90;99.90;;;;;;5049271;28;20449;-83
2022/05/09 08:16:34;;;;;;;14.50;9.97;;;17.90;99.90;;;;;;5032590;28;20473;-84
2022/05/09 08:19:02;;;;;;;11.43;10.33;;;18.00;99.90;;;;;;5049500;28;20984;-83
2022/05/09 08:21:29;;;;;;;10.90;8.80;;;17.90;99.90;;;;;;5049012;28;20438;-83
2022/05/09 08:23:55;;;;;;;11.37;9.50;;;18.00;99.90;;;;;;5049079;28;20431;-84
2022/05/09 08:26:22;;;;;;;11.10;9.50;;;18.20;99.90;;;;;;5049078;28;20484;-83
2022/05/09 08:28:54;;;;;;;9.83;8.83;;;18.40;99.90;;;;;;5067470;28;20420;-83
2022/05/09 08:31:21;;;;;;;11.67;8.77;;;18.60;99.90;;;;;;5049125;28;20878;-83
2022/05/09 08:33:49;;;;;;;16.13;10.67;;;18.90;99.90;;;;;;5032940;28;20429;-82
2022/05/09 08:37:01;;;;;;;12.03;9.17;;;19.10;99.90;;;;;;5067101;28;20519;-82
2022/05/09 08:39:01;;;;;;;10.30;9.20;;;19.30;99.90;;;;;;5056355;28;20526;-82
2022/05/09 08:41:33;;;;;;;11.43;7.80;;;19.50;99.90;;;;;;5067833;28;20514;-82
2022/05/09 08:44:07;;;;;;;13.73;9.77;;;19.50;99.90;;;;;;5067778;28;20661;-83
2022/05/09 08:47:00;;;;;;;8.90;8.00;;;19.60;99.90;;;;;;5049658;28;20472;-82
2022/05/09 08:49:47;;;;;;;8.00;7.20;;;20.20;99.90;;;;;;5067986;28;20415;-82
2022/05/09 08:52:27;;;;;;;8.27;7.47;;;20.50;99.90;;;;;;5068098;28;20418;-83
2022/05/09 08:54:54;;;;;;;9.97;8.00;;;20.70;99.90;;;;;;5049499;28;20991;-83
2022/05/09 08:57:29;;;;;;;10.30;7.43;;;21.00;99.90;;;;;;5049471;28;20444;-90
2022/05/09 09:00:04;;;;;;;9.33;8.30;;;21.30;99.90;;;;;;5049947;28;20453;-87
2022/05/09 09:02:41;;;;;;;12.27;9.80;;;21.20;99.90;;;;;;5049327;28;20427;-86
2022/05/09 09:05:11;;;;;;;10.03;8.33;;;20.90;99.90;;;;;;5050153;28;20995;-88
2022/05/09 09:07:55;;;;;;;11.43;9.20;;;20.80;99.90;;;;;;5053613;28;20471;-88
2022/05/09 09:10:29;;;;;;;9.80;8.90;;;20.40;99.90;;;;;;5053151;28;20421;-88
2022/05/09 09:13:09;;;;;;;9.73;8.60;;;20.30;99.90;;;;;;5070766;28;20436;-88
2022/05/09 09:16:13;;;;;;;13.50;9.50;;;20.20;99.90;;;;;;5071851;28;20969;-88
2022/05/09 09:19:16;;;;;;;10.10;9.00;;;20.80;99.90;;;;;;5071396;28;20421;-88
2022/05/09 09:22:15;;;;;;;10.60;8.43;;;21.00;99.90;;;;;;5070982;28;20498;-87
2022/05/09 09:25:11;;;;;;;7.97;7.27;;;20.70;99.90;;;;;;5071305;28;22352;-89
2022/05/09 09:28:09;;;;;;;9.60;6.80;;;21.30;99.90;;;;;;5071415;28;20420;-88
2022/05/09 09:30:36;;;;;;;7.27;6.67;;;21.40;99.90;;;;;;5040299;28;20818;-85
2022/05/09 09:33:09;;;;;;;12.10;6.83;;;21.20;99.90;;;;;;5071776;28;20428;-88
2022/05/09 09:35:53;;;;;;;7.97;7.27;;;21.10;99.90;;;;;;5067254;28;21005;-88
2022/05/09 09:38:29;;;;;;;9.83;7.43;;;20.80;99.90;;;;;;5071191;28;20418;-88
2022/05/09 09:40:55;;;;;;;8.23;7.43;;;20.60;99.90;;;;;;5053250;28;20496;-91
2022/05/09 09:43:22;;;;;;;8.40;6.07;;;20.50;99.90;;;;;;5020506;28;20526;-92
2022/05/09 09:46:03;;;;;;;7.40;6.80;;;20.70;99.90;;;;;;5020015;28;20234;-86
2022/05/09 09:48:31;;;;;;;6.50;5.90;;;20.90;99.90;;;;;;5053521;28;20420;-88
2022/05/09 09:51:12;;;;;;;6.13;5.50;;;21.10;99.90;;;;;;5052211;28;20535;-90
2022/05/09 09:53:45;;;;;;;6.43;5.67;;;21.40;99.90;;;;;;5070559;28;20409;-87
2022/05/09 09:56:23;;;;;;;8.33;5.33;;;21.50;99.90;;;;;;5036293;28;20538;-84
2022/05/09 09:58:51;;;;;;;7.40;5.40;;;21.90;98.60;;;;;;5051756;28;20420;-89
2022/05/09 10:01:27;;;;;;;5.93;4.80;;;22.20;95.00;;;;;;5019156;28;20426;-89
2022/05/09 10:04:26;;;;;;;4.77;4.40;;;22.40;94.60;;;;;;5052076;28;20470;-86
2022/05/09 10:07:08;;;;;;;6.63;4.93;;;22.10;93.50;;;;;;5051725;28;20428;-87
2022/05/09 10:09:53;;;;;;;9.30;5.17;;;21.90;94.60;;;;;;5070004;28;21187;-85
2022/05/09 10:12:26;;;;;;;5.50;5.10;;;21.70;94.50;;;;;;5069800;28;20444;-83
2022/05/09 10:14:53;;;;;;;7.80;5.60;;;22.60;95.70;;;;;;5052267;28;20790;-84
2022/05/09 10:17:30;;;;;;;6.30;5.37;;;23.30;93.30;;;;;;5067937;28;20425;-84
2022/05/09 10:19:58;;;;;;;7.33;5.33;;;23.40;92.20;;;;;;5069073;28;20998;-84
2022/05/09 10:25:22;;;;;;;11.97;4.73;;;23.50;92.40;;;;;;5069399;28;21133;-87
2022/05/09 10:28:16;;;;;;;5.47;4.60;;;23.30;92.40;;;;;;5051199;28;20501;-86
2022/05/09 10:30:54;;;;;;;6.27;5.70;;;23.00;91.00;;;;;;5025115;28;20465;-85
2022/05/09 10:33:38;;;;;;;4.93;4.37;;;22.50;91.60;;;;;;5050814;28;20453;-85
2022/05/09 10:36:27;;;;;;;5.20;4.70;;;22.50;93.90;;;;;;5068992;28;20512;-86
2022/05/09 10:39:06;;;;;;;7.90;5.20;;;23.40;93.80;;;;;;5034209;28;20429;-84
2022/05/09 10:41:40;;;;;;;7.57;4.90;;;23.70;91.30;;;;;;5052119;28;20418;-81
2022/05/09 10:44:47;;;;;;;7.40;5.07;;;24.00;90.00;;;;;;5050970;28;20552;-83
2022/05/09 10:47:16;;;;;;;7.17;4.83;;;24.30;89.70;;;;;;5069186;28;20424;-82
2022/05/09 10:49:54;;;;;;;5.83;5.07;;;23.60;90.30;;;;;;5050466;28;20454;-83
2022/05/09 10:53:02;;;;;;;8.50;4.70;;;23.10;90.10;;;;;;5068843;28;20496;-84
2022/05/09 10:55:45;;;;;;;5.97;4.57;;;22.60;90.40;;;;;;5050493;28;20843;-84
2022/05/09 10:58:28;;;;;;;5.30;4.80;;;22.60;90.90;;;;;;5050682;28;20516;-83
2022/05/09 11:01:16;;;;;;;5.10;4.70;;;22.60;91.20;;;;;;5050660;28;20959;-83
2022/05/09 11:03:44;;;;;;;5.80;5.20;;;22.60;91.90;;;;;;5050310;28;20440;-85
2022/05/09 11:06:25;;;;;;;5.63;5.10;;;22.60;93.10;;;;;;5050110;28;20471;-83
2022/05/09 11:09:30;;;;;;;7.60;5.40;;;22.60;92.00;;;;;;5068902;28;20409;-84
2022/05/09 11:12:18;;;;;;;7.40;5.43;;;22.40;91.70;;;;;;5068498;28;20449;-84
2022/05/09 11:14:52;;;;;;;4.80;4.40;;;22.30;92.30;;;;;;5050438;28;20432;-83
2022/05/09 11:17:18;;;;;;;5.47;4.97;;;22.30;91.50;;;;;;5050184;28;20536;-84
2022/05/09 11:20:00;;;;;;;12.23;4.73;;;22.60;92.80;;;;;;5068332;28;20413;-84
2022/05/09 11:22:36;;;;;;;5.20;4.80;;;22.80;91.60;;;;;;5050338;28;20447;-80
2022/05/09 11:25:13;;;;;;;4.77;4.37;;;22.60;91.30;;;;;;5050513;28;21024;-84
2022/05/09 11:27:42;;;;;;;9.63;4.97;;;22.30;91.90;;;;;;5050378;28;20971;-85
2022/05/09 11:30:26;;;;;;;5.37;4.87;;;22.20;91.70;;;;;;5050798;28;21074;-85
2022/05/09 11:33:32;;;;;;;6.77;4.90;;;22.40;91.30;;;;;;5068869;28;20420;-84
2022/05/09 11:36:39;;;;;;;5.97;4.27;;;22.40;91.00;;;;;;5050105;28;20484;-85
2022/05/09 11:39:11;;;;;;;5.30;4.70;;;22.30;93.40;;;;;;5039564;28;20482;-86
2022/05/09 11:45:16;;;;;;;5.13;3.80;;;22.80;92.20;;;;;;5036657;28;20477;-86
2022/05/09 11:48:01;;;;;;;14.07;5.10;;;23.90;87.70;;;;;;5049936;28;20451;-82
2022/05/09 11:50:44;;;;;;;8.43;5.10;;;23.80;89.40;;;;;;5067813;28;20434;-83
2022/05/09 11:53:12;;;;;;;5.43;4.87;;;23.40;90.60;;;;;;5049824;28;21049;-80
2022/05/09 11:55:39;;;;;;;8.43;5.27;;;23.20;91.00;;;;;;5032661;28;20446;-81
2022/05/09 11:58:05;;;;;;;6.90;4.57;;;22.60;90.40;;;;;;5049742;28;20420;-84
2022/05/09 12:00:35;;;;;;;5.13;4.73;;;23.00;91.20;;;;;;5016897;28;20798;-85
2022/05/09 12:03:06;;;;;;;4.60;4.23;;;23.90;90.50;;;;;;5049749;28;20419;-85
2022/05/09 12:05:32;;;;;;;6.30;5.40;;;24.70;91.40;;;;;;5049724;28;20554;-86
2022/05/09 12:08:05;;;;;;;4.77;4.27;;;24.60;89.60;;;;;;5033544;28;20463;-84
2022/05/09 12:10:38;;;;;;;5.47;4.70;;;24.20;89.60;;;;;;5049577;28;20422;-84
2022/05/09 12:13:14;;;;;;;5.57;5.07;;;23.90;90.70;;;;;;5049751;28;20518;-82
2022/05/09 12:15:45;;;;;;;7.70;4.33;;;24.40;90.30;;;;;;5033974;28;20450;-86
2022/05/09 12:18:47;;;;;;;5.70;4.63;;;24.80;86.40;;;;;;5067893;28;20457;-83
2022/05/09 12:21:16;;;;;;;6.30;4.20;;;25.30;82.90;;;;;;5040876;28;20427;-82
2022/05/09 12:23:42;;;;;;;4.90;4.43;;;25.60;79.10;;;;;;5048824;28;20432;-82
2022/05/09 12:26:09;;;;;;;5.60;4.47;;;26.00;80.20;;;;;;5048686;28;20525;-82
2022/05/09 12:28:43;;;;;;;5.13;4.57;;;26.30;80.50;;;;;;5048730;28;20206;-82
2022/05/09 12:31:27;;;;;;;5.70;5.20;;;26.20;78.80;;;;;;5049405;28;20428;-82
2022/05/09 12:33:54;;;;;;;8.53;4.67;;;26.40;77.90;;;;;;5068243;28;20451;-82
2022/05/09 12:36:20;;;;;;;6.57;4.60;;;26.50;75.70;;;;;;5032530;28;20555;-81
2022/05/09 12:38:51;;;;;;;5.90;4.50;;;26.60;79.10;;;;;;5048857;28;21007;-82
2022/05/09 12:41:19;;;;;;;7.60;4.90;;;26.70;80.50;;;;;;5049506;28;20194;-83
2022/05/09 12:44:13;;;;;;;4.97;4.57;;;26.90;80.00;;;;;;5049433;28;20425;-83
2022/05/09 12:46:50;;;;;;;7.03;4.50;;;26.70;78.30;;;;;;5048996;28;20501;-84
2022/05/09 12:49:21;;;;;;;11.33;5.13;;;26.20;77.20;;;;;;5067210;28;20508;-82
2022/05/09 12:51:50;;;;;;;6.33;4.50;;;25.70;76.10;;;;;;5048974;28;20449;-84
2022/05/09 12:54:20;;;;;;;5.50;4.80;;;25.90;78.80;;;;;;5032045;28;20508;-85
2022/05/09 12:56:52;;;;;;;5.13;4.50;;;26.20;79.20;;;;;;5066624;28;20445;-84
2022/05/09 12:59:19;;;;;;;5.27;4.77;;;25.80;75.60;;;;;;5032222;28;20464;-80
2022/05/09 13:01:55;;;;;;;5.20;4.63;;;25.30;78.80;;;;;;5048432;28;20511;-83
2022/05/09 13:04:32;;;;;;;5.20;4.37;;;24.70;77.80;;;;;;5066489;28;20431;-84
2022/05/09 13:07:07;;;;;;;7.40;4.93;;;24.50;81.40;;;;;;5032206;28;20463;-84
2022/05/09 13:09:36;;;;;;;4.50;4.10;;;24.30;84.30;;;;;;5031697;28;20946;-83
2022/05/09 13:12:13;;;;;;;7.10;4.30;;;24.00;83.60;;;;;;5048421;28;20424;-83
2022/05/09 13:14:44;;;;;;;11.73;4.40;;;23.70;82.50;;;;;;5032577;28;20502;-83